sensor_id;sensor_type;location;lat;lon;timestamp;temperature;humidity
22522;DHT22;11427;51.062;17.044;2023-03-14T00:11:20;11.30;99.90
22522;DHT22;11427;51.062;17.044;2023-03-14T00:26:22;11.00;99.90
22522;DHT22;11427;51.062;17.044;2023-03-14T00:41:24;10.80;99.90
22522;DHT22;11427;51.062;17.044;2023-03-14T00:56:26;10.90;99.90
22522;DHT22;11427;51.062;17.044;2023-03-14T01:11:30;11.00;99.90
22522;DHT22;11427;51.062;17.044;2023-03-14T01:26:34;11.10;99.90
22522;DHT22;11427;51.062;17.044;2023-03-14T01:41:36;11.80;99.90
22522;DHT22;11427;51.062;17.044;2023-03-14T01:56:39;11.80;99.90
22522;DHT22;11427;51.062;17.044;2023-03-14T02:11:43;11.70;99.90
22522;DHT22;11427;51.062;17.044;2023-03-14T02:42:07;10.50;99.90
22522;DHT22;11427;51.062;17.044;2023-03-14T02:57:08;10.80;99.90
22522;DHT22;11427;51.062;17.044;2023-03-14T03:12:11;10.60;99.90
22522;DHT22;11427;51.062;17.044;2023-03-14T03:27:13;11.00;99.90
22522;DHT22;11427;51.062;17.044;2023-03-14T03:42:15;11.10;99.90
22522;DHT22;11427;51.062;17.044;2023-03-14T03:57:17;11.00;99.90
22522;DHT22;11427;51.062;17.044;2023-03-14T04:12:19;11.00;99.90
22522;DHT22;11427;51.062;17.044;2023-03-14T04:27:21;11.20;99.90
22522;DHT22;11427;51.062;17.044;2023-03-14T04:42:23;11.50;99.90
22522;DHT22;11427;51.062;17.044;2023-03-14T04:57:24;11.50;99.90
22522;DHT22;11427;51.062;17.044;2023-03-14T05:12:26;11.30;99.90
22522;DHT22;11427;51.062;17.044;2023-03-14T05:27:28;11.40;99.90
22522;DHT22;11427;51.062;17.044;2023-03-14T05:42:30;11.00;99.90
22522;DHT22;11427;51.062;17.044;2023-03-14T05:57:33;10.90;99.90
22522;DHT22;11427;51.062;17.044;2023-03-14T06:12:35;11.20;99.90
22522;DHT22;11427;51.062;17.044;2023-03-14T06:27:37;11.20;99.90
22522;DHT22;11427;51.062;17.044;2023-03-14T06:42:39;11.40;99.90
22522;DHT22;11427;51.062;17.044;2023-03-14T06:57:41;11.60;99.90
22522;DHT22;11427;51.062;17.044;2023-03-14T07:12:43;11.50;99.90
22522;DHT22;11427;51.062;17.044;2023-03-14T07:27:46;11.50;99.90
22522;DHT22;11427;51.062;17.044;2023-03-14T07:42:49;11.30;99.90
22522;DHT22;11427;51.062;17.044;2023-03-14T07:57:51;11.30;99.90
22522;DHT22;11427;51.062;17.044;2023-03-14T08:12:55;11.10;99.90
22522;DHT22;11427;51.062;17.044;2023-03-14T08:27:58;10.80;99.90
22522;DHT22;11427;51.062;17.044;2023-03-14T08:43:00;10.50;99.90
22522;DHT22;11427;51.062;17.044;2023-03-14T08:58:02;10.50;99.90
22522;DHT22;11427;51.062;17.044;2023-03-14T09:13:04;10.60;99.90
22522;DHT22;11427;51.062;17.044;2023-03-14T09:28:06;11.00;99.90
22522;DHT22;11427;51.062;17.044;2023-03-14T09:43:11;11.20;99.90
22522;DHT22;11427;51.062;17.044;2023-03-14T09:58:23;11.10;99.90
22522;DHT22;11427;51.062;17.044;2023-03-14T10:13:27;11.20;99.90
22522;DHT22;11427;51.062;17.044;2023-03-14T10:43:41;11.40;99.90
22522;DHT22;11427;51.062;17.044;2023-03-14T10:58:45;12.00;99.90
22522;DHT22;11427;51.062;17.044;2023-03-14T11:14:12;12.20;99.90
22522;DHT22;11427;51.062;17.044;2023-03-14T12:15:01;13.70;99.90
22522;DHT22;11427;51.062;17.044;2023-03-14T12:30:32;12.80;99.90
22522;DHT22;11427;51.062;17.044;2023-03-14T12:45:34;12.60;99.90
22522;DHT22;11427;51.062;17.044;2023-03-14T13:00:39;12.70;99.90
22522;DHT22;11427;51.062;17.044;2023-03-14T13:15:45;12.50;99.90
22522;DHT22;11427;51.062;17.044;2023-03-14T13:30:50;12.60;99.90
22522;DHT22;11427;51.062;17.044;2023-03-14T13:46:19;12.60;99.90
22522;DHT22;11427;51.062;17.044;2023-03-14T14:16:28;12.50;99.90
22522;DHT22;11427;51.062;17.044;2023-03-14T14:31:31;12.60;99.90
22522;DHT22;11427;51.062;17.044;2023-03-14T14:46:36;12.60;99.90
22522;DHT22;11427;51.062;17.044;2023-03-14T15:01:39;12.90;99.90
